createdAt,value
2022-08-11T00:02:15.558Z,50.74
2022-08-11T00:04:43.378Z,50.64
2022-08-11T00:07:11.316Z,50.58
2022-08-11T00:09:40.172Z,51.00
2022-08-11T00:12:13.428Z,51.56
2022-08-11T00:14:41.824Z,51.68
2022-08-11T00:17:10.360Z,51.33
2022-08-11T00:20:11.914Z,51.09
2022-08-11T00:22:34.219Z,51.69
2022-08-11T00:25:02.911Z,51.85
2022-08-11T00:27:34.359Z,52.18
2022-08-11T00:30:01.894Z,52.01
2022-08-11T00:32:29.852Z,52.13
2022-08-11T00:35:50.821Z,52.69
2022-08-11T00:37:49.496Z,53.40
2022-08-11T00:40:20.940Z,53.59
2022-08-11T00:42:56.304Z,53.51
2022-08-11T00:45:26.864Z,54.03
2022-08-11T00:48:03.771Z,54.78
2022-08-11T00:50:40.538Z,54.97
2022-08-11T00:53:15.332Z,54.52
2022-08-11T00:56:11.273Z,54.61
2022-08-11T00:58:51.129Z,54.82
2022-08-11T01:01:28.485Z,54.67
2022-08-11T01:04:26.457Z,55.27
2022-08-11T01:07:07.134Z,55.89
2022-08-11T01:09:46.101Z,55.89
2022-08-11T01:12:21.472Z,56.05
2022-08-11T01:15:05.608Z,56.36
2022-08-11T01:17:50.757Z,56.91
2022-08-11T01:20:47.916Z,57.20
2022-08-11T01:23:34.748Z,57.54
2022-08-11T01:26:24.353Z,58.08
2022-08-11T01:29:10.326Z,57.52
2022-08-11T01:32:04.214Z,57.57
2022-08-11T01:35:10.973Z,58.42
2022-08-11T01:38:22.883Z,58.07
2022-08-11T01:41:46.977Z,58.68
2022-08-11T01:44:38.146Z,60.21
2022-08-11T01:47:37.722Z,59.73
2022-08-11T01:50:36.634Z,59.54
2022-08-11T01:53:16.786Z,59.61
2022-08-11T01:55:55.090Z,59.87
2022-08-11T01:58:40.778Z,60.14
2022-08-11T02:01:24.802Z,60.30
2022-08-11T02:03:59.552Z,60.71
2022-08-11T02:06:57.096Z,60.62
2022-08-11T02:09:51.717Z,60.19
2022-08-11T02:12:32.119Z,60.58
2022-08-11T02:15:09.285Z,60.88
2022-08-11T02:17:54.777Z,61.80
2022-08-11T02:20:45.050Z,62.01
2022-08-11T02:24:04.127Z,62.42
2022-08-11T02:26:37.437Z,62.50
2022-08-11T02:29:16.671Z,62.73
2022-08-11T02:32:29.777Z,63.26
2022-08-11T02:35:06.017Z,62.64
2022-08-11T02:37:46.981Z,62.64
2022-08-11T02:40:31.179Z,62.79
2022-08-11T02:43:10.601Z,63.05
2022-08-11T02:45:55.453Z,63.47
2022-08-11T02:48:57.707Z,63.54
2022-08-11T02:51:34.443Z,63.51
2022-08-11T02:54:09.775Z,64.05
2022-08-11T02:56:52.119Z,64.68
2022-08-11T02:59:53.481Z,65.38
2022-08-11T03:02:31.533Z,65.64
2022-08-11T03:05:13.805Z,65.72
2022-08-11T03:08:00.117Z,65.79
2022-08-11T03:10:35.906Z,66.61
2022-08-11T03:13:33.261Z,67.01
2022-08-11T03:16:34.209Z,67.22
2022-08-11T03:19:12.962Z,67.27
2022-08-11T03:21:52.340Z,67.27
2022-08-11T03:24:50.741Z,67.55
2022-08-11T03:27:36.980Z,67.63
2022-08-11T03:30:14.465Z,67.98
2022-08-11T03:33:06.807Z,67.83
2022-08-11T03:35:41.119Z,68.46
2022-08-11T03:38:13.818Z,68.56
2022-08-11T03:42:03.887Z,69.03
2022-08-11T03:44:29.495Z,69.14
2022-08-11T03:47:16.107Z,68.74
2022-08-11T03:50:02.031Z,68.62
2022-08-11T03:52:43.886Z,69.07
2022-08-11T03:55:22.112Z,68.48
2022-08-11T03:58:41.852Z,68.82
2022-08-11T04:01:41.460Z,69.27
2022-08-11T04:04:51.387Z,69.63
2022-08-11T04:07:48.278Z,69.70
2022-08-11T04:11:00.020Z,69.65
2022-08-11T04:14:19.697Z,69.80
2022-08-11T04:16:54.201Z,70.17
2022-08-11T04:20:07.372Z,70.59
2022-08-11T04:23:03.569Z,70.47
2022-08-11T04:25:57.870Z,70.64
2022-08-11T04:28:51.032Z,70.97
2022-08-11T04:31:50.384Z,70.15
2022-08-11T04:34:45.986Z,70.06
2022-08-11T04:37:34.181Z,70.30
2022-08-11T04:40:19.170Z,70.20
2022-08-11T04:43:28.379Z,69.97
2022-08-11T04:46:13.610Z,69.63
2022-08-11T04:49:34.208Z,69.16
2022-08-11T04:52:37.896Z,68.86
2022-08-11T04:55:54.773Z,68.51
2022-08-11T04:58:46.450Z,67.70
2022-08-11T05:01:42.404Z,66.95
2022-08-11T05:04:43.146Z,67.09
2022-08-11T05:07:34.342Z,67.26
2022-08-11T05:10:20.387Z,66.55
2022-08-11T05:12:53.152Z,66.44
2022-08-11T05:15:51.499Z,66.21
2022-08-11T05:18:41.234Z,65.85
2022-08-11T05:21:30.505Z,64.27
2022-08-11T05:24:38.936Z,63.32
2022-08-11T05:27:27.377Z,63.19
2022-08-11T05:30:20.658Z,62.46
2022-08-11T05:33:16.701Z,61.48
2022-08-11T05:36:02.189Z,62.16
2022-08-11T05:38:53.173Z,60.62
2022-08-11T05:41:40.254Z,60.30
2022-08-11T05:44:25.961Z,61.04
2022-08-11T05:47:13.338Z,59.45
2022-08-11T05:49:59.902Z,59.21
2022-08-11T05:52:49.166Z,57.85
2022-08-11T05:56:01.676Z,56.21
2022-08-11T05:58:41.339Z,55.40
2022-08-11T06:01:10.568Z,55.02
2022-08-11T06:03:58.066Z,53.68
2022-08-11T06:06:29.142Z,53.93
2022-08-11T06:08:57.889Z,53.85
2022-08-11T06:11:44.183Z,53.68
2022-08-11T06:14:13.193Z,51.98
2022-08-11T06:16:43.098Z,51.37
2022-08-11T06:19:13.165Z,50.73
2022-08-11T06:21:46.289Z,49.26
2022-08-11T06:24:15.364Z,48.81
2022-08-11T06:27:11.272Z,47.30
2022-08-11T06:29:47.620Z,46.29
2022-08-11T06:32:17.202Z,45.08
2022-08-11T06:35:03.129Z,43.75
2022-08-11T06:37:43.438Z,42.04
2022-08-11T06:40:17.812Z,41.14
2022-08-11T06:42:53.086Z,39.24
2022-08-11T06:45:28.583Z,38.48
2022-08-11T06:48:00.807Z,37.43
2022-08-11T06:50:50.009Z,36.82
2022-08-11T06:53:20.657Z,36.39
2022-08-11T06:56:08.489Z,35.56
2022-08-11T06:58:56.685Z,34.55
2022-08-11T07:01:36.298Z,34.43
2022-08-11T07:04:08.211Z,34.86
2022-08-11T07:07:10.182Z,34.71
2022-08-11T07:10:37.401Z,33.79
2022-08-11T07:13:44.575Z,33.19
2022-08-11T07:16:15.605Z,33.07
2022-08-11T07:19:01.135Z,32.86
2022-08-11T07:22:01.159Z,33.53
2022-08-11T07:25:01.989Z,33.77
2022-08-11T07:27:53.711Z,33.53
2022-08-11T07:30:21.739Z,33.08
2022-08-11T07:32:53.467Z,32.66
2022-08-11T07:35:25.548Z,32.19
2022-08-11T07:38:02.209Z,32.07
2022-08-11T07:40:33.559Z,32.13
2022-08-11T07:43:02.028Z,32.07
2022-08-11T07:45:48.702Z,31.65
2022-08-11T07:48:34.936Z,31.97
2022-08-11T07:51:21.222Z,31.27
2022-08-11T07:53:58.619Z,32.30
2022-08-11T07:56:55.553Z,32.16
2022-08-11T08:00:00.006Z,31.43
2022-08-11T08:02:46.647Z,31.29
2022-08-11T08:05:33.982Z,31.59
2022-08-11T08:08:19.691Z,31.65
2022-08-11T08:11:05.554Z,30.28
2022-08-11T08:13:54.016Z,30.23
2022-08-11T08:16:39.795Z,30.14
2022-08-11T08:19:08.167Z,29.88
2022-08-11T08:21:35.934Z,29.18
2022-08-11T08:24:05.018Z,29.77
2022-08-11T08:26:52.291Z,29.64
2022-08-11T08:29:40.169Z,29.46
2022-08-11T08:32:11.134Z,29.71
2022-08-11T08:34:41.111Z,29.42
2022-08-11T08:37:16.295Z,29.87
2022-08-11T08:39:58.548Z,28.79
2022-08-11T08:42:29.511Z,29.10
2022-08-11T08:45:03.253Z,28.99
2022-08-11T08:47:43.009Z,29.07
2022-08-11T08:50:16.207Z,29.73
2022-08-11T08:52:51.404Z,29.66
2022-08-11T08:55:20.900Z,28.49
2022-08-11T08:57:52.559Z,28.64
2022-08-11T09:00:23.562Z,27.71
2022-08-11T09:02:53.054Z,27.46
2022-08-11T09:05:21.344Z,28.31
2022-08-11T09:07:53.166Z,27.96
2022-08-11T09:10:21.905Z,28.67
2022-08-11T09:12:51.573Z,28.22
2022-08-11T09:15:22.247Z,27.91
2022-08-11T09:17:56.167Z,28.38
2022-08-11T09:20:26.992Z,27.76
2022-08-11T09:24:06.852Z,27.64
2022-08-11T09:26:22.448Z,27.71
2022-08-11T09:28:59.935Z,28.21
2022-08-11T09:31:37.233Z,27.35
2022-08-11T09:34:10.896Z,28.46
2022-08-11T09:36:57.668Z,27.43
2022-08-11T09:39:40.575Z,27.79
2022-08-11T09:42:23.652Z,27.88
2022-08-11T09:44:53.183Z,26.69
2022-08-11T09:47:24.721Z,27.31
2022-08-11T09:50:00.130Z,26.84
2022-08-11T09:52:30.897Z,26.29
2022-08-11T09:54:59.040Z,26.32
2022-08-11T09:57:44.797Z,24.77
2022-08-11T10:00:15.426Z,24.53
2022-08-11T10:02:45.366Z,25.21
2022-08-11T10:05:35.958Z,24.74
2022-08-11T10:08:05.816Z,24.23
2022-08-11T10:10:38.648Z,24.47
2022-08-11T10:14:04.800Z,25.17
2022-08-11T10:16:14.514Z,24.84
2022-08-11T10:18:52.545Z,24.08
2022-08-11T10:21:30.259Z,24.08
2022-08-11T10:24:18.762Z,24.50
2022-08-11T10:26:58.882Z,24.78
2022-08-11T10:29:50.240Z,24.97
2022-08-11T10:32:57.545Z,25.18
2022-08-11T10:35:29.150Z,24.73
2022-08-11T10:38:07.949Z,24.63
2022-08-11T10:40:39.790Z,25.19
2022-08-11T10:43:13.599Z,24.64
2022-08-11T10:46:02.734Z,23.46
2022-08-11T10:48:32.966Z,23.37
2022-08-11T10:51:49.943Z,22.65
2022-08-11T10:54:24.828Z,22.96
2022-08-11T10:57:12.854Z,23.58
2022-08-11T10:59:42.995Z,23.54
2022-08-11T11:02:15.193Z,24.26
2022-08-11T11:04:59.137Z,22.99
2022-08-11T11:07:41.470Z,22.93
2022-08-11T11:10:13.847Z,22.76
2022-08-11T11:13:02.547Z,22.13
2022-08-11T11:15:49.954Z,22.70
2022-08-11T11:18:22.537Z,22.93
2022-08-11T11:20:57.675Z,22.35
2022-08-11T11:23:29.793Z,22.50
2022-08-11T11:26:30.927Z,21.95
2022-08-11T11:29:22.425Z,21.90
2022-08-11T11:32:00.303Z,21.56
2022-08-11T11:34:53.526Z,20.93
2022-08-11T11:37:23.758Z,20.81
2022-08-11T11:39:52.195Z,20.55
2022-08-11T11:42:22.660Z,20.93
2022-08-11T11:44:55.365Z,21.52
2022-08-11T11:47:24.625Z,21.71
2022-08-11T11:49:53.057Z,20.73
2022-08-11T11:52:22.713Z,21.93
2022-08-11T11:54:53.507Z,21.93
2022-08-11T11:57:41.236Z,21.46
2022-08-11T12:00:43.876Z,21.64
2022-08-11T12:03:12.487Z,21.04
2022-08-11T12:05:43.084Z,20.65
2022-08-11T12:08:16.035Z,20.42
2022-08-11T12:10:48.561Z,21.22
2022-08-11T12:13:37.518Z,21.17
2022-08-11T12:16:33.872Z,20.20
2022-08-11T12:18:57.444Z,21.07
2022-08-11T12:21:25.935Z,20.73
2022-08-11T12:24:13.515Z,20.21
2022-08-11T12:27:16.504Z,20.57
2022-08-11T12:29:55.142Z,20.12
2022-08-11T12:32:26.094Z,20.00
2022-08-11T12:34:57.679Z,19.77
2022-08-11T12:37:31.287Z,19.72
2022-08-11T12:40:43.608Z,19.75
2022-08-11T12:43:38.467Z,20.27
2022-08-11T12:46:11.489Z,19.72
2022-08-11T12:49:03.515Z,19.09
2022-08-11T12:52:14.012Z,19.50
2022-08-11T12:54:51.415Z,19.62
2022-08-11T12:57:44.231Z,19.63
2022-08-11T13:00:30.182Z,19.95
2022-08-11T13:03:17.827Z,19.48
2022-08-11T13:05:49.588Z,19.20
2022-08-11T13:08:18.224Z,19.83
2022-08-11T13:11:04.797Z,19.25
2022-08-11T13:13:54.256Z,19.84
2022-08-11T13:16:23.452Z,19.80
2022-08-11T13:18:53.789Z,20.00
2022-08-11T13:21:23.169Z,19.48
2022-08-11T13:24:01.032Z,19.89
2022-08-11T13:26:48.111Z,19.94
2022-08-11T13:29:23.552Z,19.85
2022-08-11T13:31:52.690Z,20.29
2022-08-11T13:34:23.950Z,19.07
2022-08-11T13:36:54.291Z,19.04
2022-08-11T13:39:24.377Z,18.89
2022-08-11T13:41:54.419Z,19.00
2022-08-11T13:44:25.822Z,19.79
2022-08-11T13:46:55.580Z,20.09
2022-08-11T13:49:25.424Z,20.03
2022-08-11T13:51:53.922Z,20.00
2022-08-11T13:54:25.220Z,20.12
2022-08-11T13:56:55.218Z,20.12
2022-08-11T13:59:29.766Z,20.27
2022-08-11T14:02:22.318Z,18.92
2022-08-11T14:04:56.351Z,18.87
2022-08-11T14:07:26.840Z,18.91
2022-08-11T14:10:01.982Z,19.18
2022-08-11T14:12:50.017Z,18.97
2022-08-11T14:15:21.478Z,19.06
2022-08-11T14:17:54.934Z,18.77
2022-08-11T14:20:40.481Z,18.30
2022-08-11T14:23:12.192Z,18.02
2022-08-11T14:26:03.743Z,18.64
2022-08-11T14:28:40.019Z,18.42
2022-08-11T14:31:12.898Z,18.49
2022-08-11T14:33:59.282Z,19.19
2022-08-11T14:36:34.150Z,18.47
2022-08-11T14:39:04.852Z,18.52
2022-08-11T14:42:11.672Z,17.78
2022-08-11T14:44:57.889Z,18.51
2022-08-11T14:47:27.610Z,19.16
2022-08-11T14:50:09.542Z,18.99
2022-08-11T14:52:45.712Z,19.05
2022-08-11T14:55:32.141Z,18.62
2022-08-11T14:58:01.750Z,18.78
2022-08-11T15:00:30.058Z,18.57
2022-08-11T15:03:10.918Z,18.28
2022-08-11T15:05:42.140Z,19.06
2022-08-11T15:08:42.026Z,19.16
2022-08-11T15:11:32.332Z,19.43
2022-08-11T15:14:02.829Z,19.15
2022-08-11T15:16:48.418Z,19.34
2022-08-11T15:19:20.939Z,19.52
2022-08-11T15:22:06.801Z,19.46
2022-08-11T15:24:37.305Z,19.41
2022-08-11T15:27:27.869Z,19.73
2022-08-11T15:30:29.859Z,19.26
2022-08-11T15:33:23.288Z,19.05
2022-08-11T15:36:09.716Z,18.89
2022-08-11T15:38:42.568Z,19.53
2022-08-11T15:41:33.516Z,19.95
2022-08-11T15:44:26.851Z,20.03
2022-08-11T15:47:09.597Z,19.67
2022-08-11T15:50:10.710Z,20.06
2022-08-11T15:52:33.879Z,20.18
2022-08-11T15:55:08.980Z,19.59
2022-08-11T15:57:58.097Z,19.80
2022-08-11T16:00:44.833Z,19.66
2022-08-11T16:03:54.381Z,20.23
2022-08-11T16:06:21.665Z,19.69
2022-08-11T16:08:53.980Z,19.69
2022-08-11T16:11:23.300Z,19.01
2022-08-11T16:14:11.760Z,19.08
2022-08-11T16:16:41.008Z,19.76
2022-08-11T16:19:10.890Z,19.83
2022-08-11T16:21:40.298Z,19.80
2022-08-11T16:27:01.302Z,20.14
2022-08-11T16:27:08.488Z,20.13
2022-08-11T16:29:44.640Z,20.33
2022-08-11T16:32:20.555Z,20.12
2022-08-11T16:35:11.381Z,19.90
2022-08-11T16:37:57.401Z,19.66
2022-08-11T16:40:25.957Z,19.46
2022-08-11T16:43:12.481Z,19.88
2022-08-11T16:46:00.445Z,20.36
2022-08-11T16:48:36.034Z,20.27
2022-08-11T16:51:05.243Z,20.08
2022-08-11T16:53:59.765Z,20.26
2022-08-11T16:56:25.459Z,20.35
2022-08-11T16:59:13.104Z,20.38
2022-08-11T17:01:43.851Z,20.81
2022-08-11T17:04:38.637Z,20.67
2022-08-11T17:07:42.433Z,20.61
2022-08-11T17:10:51.063Z,20.92
2022-08-11T17:13:26.963Z,21.22
2022-08-11T17:16:08.435Z,21.60
2022-08-11T17:18:44.085Z,21.87
2022-08-11T17:21:21.300Z,21.67
2022-08-11T17:23:51.772Z,22.08
2022-08-11T17:26:23.217Z,22.37
2022-08-11T17:28:56.239Z,22.30
2022-08-11T17:31:47.893Z,22.50
2022-08-11T17:34:34.713Z,22.70
2022-08-11T17:37:04.019Z,22.45
2022-08-11T17:39:33.449Z,22.50
2022-08-11T17:42:20.366Z,22.39
2022-08-11T17:45:07.290Z,22.74
2022-08-11T17:47:53.266Z,23.15
2022-08-11T17:50:23.343Z,23.08
2022-08-11T17:53:06.433Z,23.13
2022-08-11T17:55:53.895Z,23.66
2022-08-11T17:58:41.765Z,23.41
2022-08-11T18:01:12.100Z,23.66
2022-08-11T18:03:41.697Z,23.72
2022-08-11T18:06:33.956Z,24.10
2022-08-11T18:09:22.447Z,23.96
2022-08-11T18:12:12.221Z,24.33
2022-08-11T18:15:00.306Z,24.31
2022-08-11T18:17:45.494Z,24.86
2022-08-11T18:20:30.546Z,24.86
2022-08-11T18:23:21.770Z,24.79
2022-08-11T18:26:30.058Z,24.89
2022-08-11T18:29:17.553Z,25.28
2022-08-11T18:32:06.851Z,25.36
2022-08-11T18:34:56.557Z,25.87
2022-08-11T18:37:45.735Z,25.83
2022-08-11T18:40:37.750Z,25.85
2022-08-11T18:43:28.457Z,26.23
2022-08-11T18:46:19.381Z,26.69
2022-08-11T18:49:11.769Z,26.68
2022-08-11T18:52:03.678Z,26.50
2022-08-11T18:54:53.078Z,26.64
2022-08-11T18:57:49.788Z,27.04
2022-08-11T19:00:41.211Z,27.36
2022-08-11T19:03:30.195Z,27.66
2022-08-11T19:06:38.695Z,27.28
2022-08-11T19:09:28.945Z,28.38
2022-08-11T19:12:15.335Z,28.49
2022-08-11T19:15:03.886Z,29.49
2022-08-11T19:17:51.312Z,29.22
2022-08-11T19:20:39.476Z,29.81
2022-08-11T19:23:27.105Z,29.96
2022-08-11T19:26:12.609Z,30.28
2022-08-11T19:29:00.446Z,30.49
2022-08-11T19:31:48.332Z,30.68
2022-08-11T19:34:35.547Z,30.98
2022-08-11T19:37:24.714Z,31.09
2022-08-11T19:40:11.889Z,30.68
2022-08-11T19:42:59.062Z,31.16
2022-08-11T19:45:45.898Z,31.83
2022-08-11T19:48:40.778Z,32.04
2022-08-11T19:51:27.493Z,32.39
2022-08-11T19:54:13.812Z,32.62
2022-08-11T19:57:00.319Z,32.87
2022-08-11T19:59:46.224Z,33.27
2022-08-11T20:02:31.558Z,33.21
2022-08-11T20:05:18.722Z,33.80
2022-08-11T20:08:05.334Z,34.61
2022-08-11T20:10:52.067Z,34.90
2022-08-11T20:13:41.663Z,35.09
2022-08-11T20:16:29.640Z,35.44
2022-08-11T20:19:16.591Z,36.13
2022-08-11T20:22:08.234Z,36.04
2022-08-11T20:24:56.645Z,36.42
2022-08-11T20:27:43.655Z,36.62
2022-08-11T20:30:30.533Z,37.04
2022-08-11T20:33:16.667Z,37.61
2022-08-11T20:36:04.233Z,37.83
2022-08-11T20:38:51.945Z,38.43
2022-08-11T20:41:57.743Z,38.50
2022-08-11T20:44:46.337Z,38.09
2022-08-11T20:47:56.563Z,38.29
2022-08-11T20:50:41.123Z,38.62
2022-08-11T20:53:28.105Z,39.00
2022-08-11T20:56:17.509Z,38.93
2022-08-11T20:59:21.505Z,39.56
2022-08-11T21:02:10.058Z,40.00
2022-08-11T21:04:56.890Z,40.03
2022-08-11T21:07:55.424Z,40.17
2022-08-11T21:10:46.798Z,40.42
2022-08-11T21:13:37.178Z,40.34
2022-08-11T21:16:26.342Z,40.82
2022-08-11T21:19:54.696Z,40.75
2022-08-11T21:22:28.121Z,41.09
2022-08-11T21:25:16.171Z,41.21
2022-08-11T21:28:03.338Z,41.59
2022-08-11T21:30:51.372Z,41.51
2022-08-11T21:33:43.933Z,41.60
2022-08-11T21:36:29.461Z,41.69
2022-08-11T21:39:15.348Z,42.08
2022-08-11T21:42:00.471Z,42.32
2022-08-11T21:44:46.974Z,42.26
2022-08-11T21:47:43.003Z,42.53
2022-08-11T21:50:29.341Z,42.81
2022-08-11T21:53:16.190Z,42.95
2022-08-11T21:56:02.622Z,42.80
2022-08-11T21:58:49.189Z,42.89
2022-08-11T22:01:34.840Z,43.14
2022-08-11T22:04:23.292Z,43.42
2022-08-11T22:07:09.496Z,43.53
2022-08-11T22:09:54.838Z,44.09
2022-08-11T22:12:44.705Z,44.09
2022-08-11T22:15:31.494Z,44.01
2022-08-11T22:18:16.981Z,44.21
2022-08-11T22:21:03.949Z,44.56
2022-08-11T22:23:53.735Z,44.77
2022-08-11T22:26:41.271Z,44.76
2022-08-11T22:29:38.304Z,45.19
2022-08-11T22:32:32.314Z,45.42
2022-08-11T22:35:18.818Z,45.45
2022-08-11T22:38:06.860Z,45.30
2022-08-11T22:40:52.835Z,45.23
2022-08-11T22:43:38.379Z,45.82
2022-08-11T22:46:24.623Z,45.82
2022-08-11T22:49:11.446Z,46.25
2022-08-11T22:51:59.831Z,45.93
2022-08-11T22:54:47.317Z,46.44
2022-08-11T22:57:33.524Z,46.70
2022-08-11T23:00:20.471Z,46.92
2022-08-11T23:03:06.957Z,46.98
2022-08-11T23:05:56.893Z,46.56
2022-08-11T23:08:42.519Z,46.63
2022-08-11T23:11:55.292Z,47.24
2022-08-11T23:14:35.973Z,48.00
2022-08-11T23:17:20.998Z,48.12
2022-08-11T23:20:25.412Z,48.39
2022-08-11T23:23:13.703Z,49.03
2022-08-11T23:26:00.037Z,48.89
2022-08-11T23:28:50.515Z,49.16
2022-08-11T23:31:50.361Z,48.98
2022-08-11T23:35:02.950Z,49.42
2022-08-11T23:37:44.718Z,49.52
2022-08-11T23:40:30.352Z,49.77
2022-08-11T23:43:16.806Z,50.29
2022-08-11T23:46:03.511Z,50.27
2022-08-11T23:48:49.280Z,50.56
2022-08-11T23:51:40.746Z,50.18
2022-08-11T23:54:27.496Z,50.26
2022-08-11T23:57:13.287Z,49.89
2022-08-11T23:59:58.606Z,50.51
